Terminal Aerodrome Forecast
Issued by NWS Jackson, KY

Home | Current Version | Previous Version | Text Only | Print | Product List | Glossary On
Versions: 1 2 3 4 5 6 7 8 9 10 11 12 13 14 15 16 17 18 19 20
000
FTUS43 KJKL 310500 RRA
TAFJKL
TAF
KJKL 310541Z 3106/0106 VRB03KT 2SM -SHRA BR SCT005 BKN100
     FM310630 19003KT 5SM -SHRA BR OVC040
     FM311400 19002KT 6SM -SHRA BR VCTS OVC025CB
     FM312300 19003KT P6SM SCT025 OVC050=

USA.gov is the U.S. government's official web portal to all federal, state and local government web resources and services.